sensor_id;sensor_type;location;lat;lon;timestamp;pressure;altitude;pressure_sealevel;temperature;humidity
9129;BME280;4599;50.906;6.786;2023-03-03T00:02:07;15750.28;;;-142.83;76.50
9129;BME280;4599;50.906;6.786;2023-03-03T00:06:12;15733.94;;;-142.83;76.56
9129;BME280;4599;50.906;6.786;2023-03-03T00:10:14;15742.09;;;-142.83;76.41
9129;BME280;4599;50.906;6.786;2023-03-03T00:14:27;15764.59;;;-142.83;77.29
9129;BME280;4599;50.906;6.786;2023-03-03T00:18:30;15725.75;;;-142.83;77.72
9129;BME280;4599;50.906;6.786;2023-03-03T00:22:36;15707.34;;;-142.83;77.00
9129;BME280;4599;50.906;6.786;2023-03-03T00:26:39;15740.06;;;-142.83;77.63
9129;BME280;4599;50.906;6.786;2023-03-03T00:30:41;15727.81;;;-142.83;78.37
9129;BME280;4599;50.906;6.786;2023-03-03T00:34:43;15695.09;;;-142.83;78.27
9129;BME280;4599;50.906;6.786;2023-03-03T00:38:46;15695.09;;;-142.83;77.37
9129;BME280;4599;50.906;6.786;2023-03-03T00:42:51;15697.13;;;-142.83;76.66
9129;BME280;4599;50.906;6.786;2023-03-03T00:46:52;15686.91;;;-142.83;77.09
9129;BME280;4599;50.906;6.786;2023-03-03T00:50:55;15727.81;;;-142.83;78.43
9129;BME280;4599;50.906;6.786;2023-03-03T00:54:58;15707.34;;;-142.83;78.58
9129;BME280;4599;50.906;6.786;2023-03-03T00:59:00;15678.72;;;-142.83;78.38
9129;BME280;4599;50.906;6.786;2023-03-03T01:03:02;15666.47;;;-142.83;78.96
9129;BME280;4599;50.906;6.786;2023-03-03T01:07:04;15711.44;;;-142.83;79.46
9129;BME280;4599;50.906;6.786;2023-03-03T01:11:10;15682.81;;;-142.83;80.32
9129;BME280;4599;50.906;6.786;2023-03-03T01:15:14;15703.25;;;-142.83;80.34
9129;BME280;4599;50.906;6.786;2023-03-03T01:19:15;15695.09;;;-142.83;80.35
9129;BME280;4599;50.906;6.786;2023-03-03T01:23:17;15666.47;;;-142.83;80.13
9129;BME280;4599;50.906;6.786;2023-03-03T01:27:20;15691.00;;;-142.83;80.54
9129;BME280;4599;50.906;6.786;2023-03-03T01:31:22;15660.31;;;-142.83;80.37
9129;BME280;4599;50.906;6.786;2023-03-03T01:35:23;15699.19;;;-142.83;80.14
9129;BME280;4599;50.906;6.786;2023-03-03T01:39:25;15691.00;;;-142.83;80.79
9129;BME280;4599;50.906;6.786;2023-03-03T01:43:29;15672.59;;;-142.83;80.81
9129;BME280;4599;50.906;6.786;2023-03-03T01:47:32;15658.28;;;-142.83;81.36
9129;BME280;4599;50.906;6.786;2023-03-03T01:51:37;15670.56;;;-142.83;81.35
9129;BME280;4599;50.906;6.786;2023-03-03T01:55:44;15686.91;;;-142.83;81.84
9129;BME280;4599;50.906;6.786;2023-03-03T01:59:49;15652.16;;;-142.83;81.82
9129;BME280;4599;50.906;6.786;2023-03-03T02:03:51;15662.38;;;-142.83;82.27
9129;BME280;4599;50.906;6.786;2023-03-03T02:07:52;15650.09;;;-142.83;82.04
9129;BME280;4599;50.906;6.786;2023-03-03T02:11:58;15656.25;;;-142.83;82.74
9129;BME280;4599;50.906;6.786;2023-03-03T02:16:01;15637.84;;;-142.83;82.84
9129;BME280;4599;50.906;6.786;2023-03-03T02:20:06;15637.84;;;-142.83;83.80
9129;BME280;4599;50.906;6.786;2023-03-03T02:24:16;15635.78;;;-142.83;83.74
9129;BME280;4599;50.906;6.786;2023-03-03T02:28:23;15613.31;;;-142.83;83.73
9129;BME280;4599;50.906;6.786;2023-03-03T02:32:25;15641.94;;;-142.83;83.50
9129;BME280;4599;50.906;6.786;2023-03-03T02:36:29;15641.94;;;-142.83;83.69
9129;BME280;4599;50.906;6.786;2023-03-03T02:40:33;15609.22;;;-142.83;83.52
9129;BME280;4599;50.906;6.786;2023-03-03T02:44:38;15625.56;;;-142.83;83.91
9129;BME280;4599;50.906;6.786;2023-03-03T02:48:39;15605.13;;;-142.83;84.39
9129;BME280;4599;50.906;6.786;2023-03-03T02:52:41;15588.78;;;-142.83;83.99
9129;BME280;4599;50.906;6.786;2023-03-03T02:56:42;15601.03;;;-142.83;83.78
9129;BME280;4599;50.906;6.786;2023-03-03T03:00:45;15613.31;;;-142.83;84.22
9129;BME280;4599;50.906;6.786;2023-03-03T03:04:47;15605.13;;;-142.83;83.87
9129;BME280;4599;50.906;6.786;2023-03-03T03:08:48;15568.31;;;-142.83;83.87
9129;BME280;4599;50.906;6.786;2023-03-03T03:12:52;15625.56;;;-142.83;83.78
9129;BME280;4599;50.906;6.786;2023-03-03T03:16:55;15605.13;;;-142.83;83.40
9129;BME280;4599;50.906;6.786;2023-03-03T03:21:05;15596.94;;;-142.83;83.54
9129;BME280;4599;50.906;6.786;2023-03-03T03:25:07;15588.78;;;-142.83;83.50
9129;BME280;4599;50.906;6.786;2023-03-03T03:29:09;15564.25;;;-142.83;83.89
9129;BME280;4599;50.906;6.786;2023-03-03T03:33:12;15603.09;;;-142.83;83.88
9129;BME280;4599;50.906;6.786;2023-03-03T03:37:13;15603.09;;;-142.83;83.16
9129;BME280;4599;50.906;6.786;2023-03-03T03:41:15;15605.13;;;-142.83;83.90
9129;BME280;4599;50.906;6.786;2023-03-03T03:45:16;15596.94;;;-142.83;83.23
9129;BME280;4599;50.906;6.786;2023-03-03T03:49:19;15594.91;;;-142.83;83.09
9129;BME280;4599;50.906;6.786;2023-03-03T03:53:21;15601.03;;;-142.83;82.50
9129;BME280;4599;50.906;6.786;2023-03-03T03:57:23;15556.06;;;-142.83;84.37
9129;BME280;4599;50.906;6.786;2023-03-03T04:01:27;15578.56;;;-142.83;84.20
9129;BME280;4599;50.906;6.786;2023-03-03T04:05:29;15588.78;;;-142.83;84.51
9129;BME280;4599;50.906;6.786;2023-03-03T04:09:31;15590.81;;;-142.83;83.42
9129;BME280;4599;50.906;6.786;2023-03-03T04:13:33;15551.97;;;-142.83;84.50
9129;BME280;4599;50.906;6.786;2023-03-03T04:17:35;15572.41;;;-142.83;83.92
9129;BME280;4599;50.906;6.786;2023-03-03T04:21:38;15588.78;;;-142.83;83.17
9129;BME280;4599;50.906;6.786;2023-03-03T04:25:39;15556.06;;;-142.83;83.00
9129;BME280;4599;50.906;6.786;2023-03-03T04:29:41;15568.31;;;-142.83;83.08
9129;BME280;4599;50.906;6.786;2023-03-03T04:33:42;15560.16;;;-142.83;83.16
9129;BME280;4599;50.906;6.786;2023-03-03T04:37:45;15560.16;;;-142.83;83.80
9129;BME280;4599;50.906;6.786;2023-03-03T04:41:46;15568.31;;;-142.83;83.08
9129;BME280;4599;50.906;6.786;2023-03-03T04:45:48;15568.31;;;-142.83;82.97
9129;BME280;4599;50.906;6.786;2023-03-03T04:49:49;15554.00;;;-142.83;82.50
9129;BME280;4599;50.906;6.786;2023-03-03T04:53:52;15568.31;;;-142.83;82.61
9129;BME280;4599;50.906;6.786;2023-03-03T04:57:53;15574.47;;;-142.83;81.98
9129;BME280;4599;50.906;6.786;2023-03-03T05:01:55;15570.38;;;-142.83;82.57
9129;BME280;4599;50.906;6.786;2023-03-03T05:05:56;15564.25;;;-142.83;83.10
9129;BME280;4599;50.906;6.786;2023-03-03T05:09:59;15523.34;;;-142.83;83.63
9129;BME280;4599;50.906;6.786;2023-03-03T05:14:01;15566.28;;;-142.83;83.13
9129;BME280;4599;50.906;6.786;2023-03-03T05:18:02;15562.19;;;-142.83;82.75
9129;BME280;4599;50.906;6.786;2023-03-03T05:22:04;15566.28;;;-142.83;82.63
9129;BME280;4599;50.906;6.786;2023-03-03T05:26:07;15560.16;;;-142.83;83.12
9129;BME280;4599;50.906;6.786;2023-03-03T05:30:10;15545.84;;;-142.83;83.41
9129;BME280;4599;50.906;6.786;2023-03-03T05:34:11;15562.19;;;-142.83;81.96
9129;BME280;4599;50.906;6.786;2023-03-03T05:38:12;15551.97;;;-142.83;82.05
9129;BME280;4599;50.906;6.786;2023-03-03T05:42:15;15549.94;;;-142.83;83.44
9129;BME280;4599;50.906;6.786;2023-03-03T05:46:17;15562.19;;;-142.83;82.93
9129;BME280;4599;50.906;6.786;2023-03-03T05:50:19;15568.31;;;-142.83;81.88
9129;BME280;4599;50.906;6.786;2023-03-03T05:54:21;15564.25;;;-142.83;81.28
9129;BME280;4599;50.906;6.786;2023-03-03T05:58:25;15572.41;;;-142.83;81.16
9129;BME280;4599;50.906;6.786;2023-03-03T06:02:26;15568.31;;;-142.83;81.54
9129;BME280;4599;50.906;6.786;2023-03-03T06:06:28;15533.56;;;-142.83;81.69
9129;BME280;4599;50.906;6.786;2023-03-03T06:10:29;15570.38;;;-142.83;82.17
9129;BME280;4599;50.906;6.786;2023-03-03T06:14:32;15535.63;;;-142.83;81.77
9129;BME280;4599;50.906;6.786;2023-03-03T06:18:33;15566.28;;;-142.83;80.46
9129;BME280;4599;50.906;6.786;2023-03-03T06:22:34;15558.09;;;-142.83;81.07
9129;BME280;4599;50.906;6.786;2023-03-03T06:26:36;15582.63;;;-142.83;80.53
9129;BME280;4599;50.906;6.786;2023-03-03T06:30:39;15560.16;;;-142.83;81.00
9129;BME280;4599;50.906;6.786;2023-03-03T06:34:40;15560.16;;;-142.83;80.59
9129;BME280;4599;50.906;6.786;2023-03-03T06:38:42;15558.09;;;-142.83;80.23
9129;BME280;4599;50.906;6.786;2023-03-03T06:42:43;15551.97;;;-142.83;81.58
9129;BME280;4599;50.906;6.786;2023-03-03T06:46:46;15570.38;;;-142.83;81.12
9129;BME280;4599;50.906;6.786;2023-03-03T06:50:48;15576.50;;;-142.83;80.61
9129;BME280;4599;50.906;6.786;2023-03-03T06:54:49;15574.47;;;-142.83;80.52
9129;BME280;4599;50.906;6.786;2023-03-03T06:58:55;15562.19;;;-142.83;80.78
9129;BME280;4599;50.906;6.786;2023-03-03T07:02:59;15580.59;;;-142.83;80.54
9129;BME280;4599;50.906;6.786;2023-03-03T07:07:09;15586.72;;;-142.83;81.66
9129;BME280;4599;50.906;6.786;2023-03-03T07:11:15;15554.00;;;-142.83;80.55
9129;BME280;4599;50.906;6.786;2023-03-03T07:15:22;15590.81;;;-142.83;80.49
9129;BME280;4599;50.906;6.786;2023-03-03T07:19:30;15558.09;;;-142.83;80.55
9129;BME280;4599;50.906;6.786;2023-03-03T07:23:37;15560.16;;;-142.83;80.84
9129;BME280;4599;50.906;6.786;2023-03-03T07:27:39;15554.00;;;-142.83;81.38
9129;BME280;4599;50.906;6.786;2023-03-03T07:31:41;15531.53;;;-142.83;80.29
9129;BME280;4599;50.906;6.786;2023-03-03T07:35:47;15541.75;;;-142.83;79.91
9129;BME280;4599;50.906;6.786;2023-03-03T07:39:49;15564.25;;;-142.83;81.67
9129;BME280;4599;50.906;6.786;2023-03-03T07:43:52;15549.94;;;-142.83;82.01
9129;BME280;4599;50.906;6.786;2023-03-03T07:47:58;15541.75;;;-142.83;81.38
9129;BME280;4599;50.906;6.786;2023-03-03T07:52:19;15605.13;;;-142.83;79.99
9129;BME280;4599;50.906;6.786;2023-03-03T07:56:29;15560.16;;;-142.83;80.44
9129;BME280;4599;50.906;6.786;2023-03-03T08:05:27;15564.25;;;-142.83;81.61
9129;BME280;4599;50.906;6.786;2023-03-03T08:09:48;15535.63;;;-142.83;82.24
9129;BME280;4599;50.906;6.786;2023-03-03T08:13:51;15556.06;;;-142.83;81.38
9129;BME280;4599;50.906;6.786;2023-03-03T08:17:53;15588.78;;;-142.83;80.63
9129;BME280;4599;50.906;6.786;2023-03-03T08:21:58;15562.19;;;-142.83;80.09
9129;BME280;4599;50.906;6.786;2023-03-03T08:26:02;15558.09;;;-142.83;79.80
9129;BME280;4599;50.906;6.786;2023-03-03T08:30:04;15562.19;;;-142.83;78.65
9129;BME280;4599;50.906;6.786;2023-03-03T08:34:06;15580.59;;;-142.83;80.28
9129;BME280;4599;50.906;6.786;2023-03-03T08:38:08;15560.16;;;-142.83;79.22
9129;BME280;4599;50.906;6.786;2023-03-03T08:42:11;15539.69;;;-142.83;78.99
9129;BME280;4599;50.906;6.786;2023-03-03T08:46:16;15572.41;;;-142.83;78.99
9129;BME280;4599;50.906;6.786;2023-03-03T08:50:20;15576.50;;;-142.83;78.17
9129;BME280;4599;50.906;6.786;2023-03-03T08:54:22;15574.47;;;-142.83;78.36
9129;BME280;4599;50.906;6.786;2023-03-03T08:58:25;15586.72;;;-142.83;77.70
9129;BME280;4599;50.906;6.786;2023-03-03T09:02:36;15556.06;;;-142.83;79.22
9129;BME280;4599;50.906;6.786;2023-03-03T09:06:38;15564.25;;;-142.83;78.74
9129;BME280;4599;50.906;6.786;2023-03-03T09:10:39;15588.78;;;-142.83;77.75
9129;BME280;4599;50.906;6.786;2023-03-03T09:14:42;15596.94;;;-142.83;77.20
9129;BME280;4599;50.906;6.786;2023-03-03T09:18:44;15576.50;;;-142.83;76.08
9129;BME280;4599;50.906;6.786;2023-03-03T09:22:45;15594.91;;;-142.83;76.31
9129;BME280;4599;50.906;6.786;2023-03-03T09:26:47;15580.59;;;-142.83;76.34
9129;BME280;4599;50.906;6.786;2023-03-03T09:30:50;15543.78;;;-142.83;76.53
9129;BME280;4599;50.906;6.786;2023-03-03T09:34:52;15605.13;;;-142.83;76.66
9129;BME280;4599;50.906;6.786;2023-03-03T09:38:55;15584.69;;;-142.83;75.60
9129;BME280;4599;50.906;6.786;2023-03-03T09:43:01;15613.31;;;-142.83;75.53
9129;BME280;4599;50.906;6.786;2023-03-03T09:47:23;15615.34;;;-142.83;75.34
9129;BME280;4599;50.906;6.786;2023-03-03T09:55:59;15627.63;;;-142.83;74.98
9129;BME280;4599;50.906;6.786;2023-03-03T10:00:18;15599.00;;;-142.83;74.98
9129;BME280;4599;50.906;6.786;2023-03-03T10:04:43;15609.22;;;-142.83;74.80
9129;BME280;4599;50.906;6.786;2023-03-03T10:09:17;15625.56;;;-142.83;73.86
9129;BME280;4599;50.906;6.786;2023-03-03T10:13:33;15611.25;;;-142.83;73.72
9129;BME280;4599;50.906;6.786;2023-03-03T10:17:47;15601.03;;;-142.83;74.49
9129;BME280;4599;50.906;6.786;2023-03-03T10:21:56;15637.84;;;-142.83;73.93
9129;BME280;4599;50.906;6.786;2023-03-03T10:26:07;15609.22;;;-142.83;73.96
9129;BME280;4599;50.906;6.786;2023-03-03T10:30:20;15599.00;;;-142.83;73.45
9129;BME280;4599;50.906;6.786;2023-03-03T10:34:57;15654.19;;;-142.83;73.14
9129;BME280;4599;50.906;6.786;2023-03-03T10:39:16;15625.56;;;-142.83;72.48
9129;BME280;4599;50.906;6.786;2023-03-03T10:43:30;15629.66;;;-142.83;71.79
9129;BME280;4599;50.906;6.786;2023-03-03T10:47:48;15617.41;;;-142.83;71.58
9129;BME280;4599;50.906;6.786;2023-03-03T10:52:10;15609.22;;;-142.83;72.91
9129;BME280;4599;50.906;6.786;2023-03-03T10:56:28;15615.34;;;-142.83;73.35
9129;BME280;4599;50.906;6.786;2023-03-03T11:00:57;15650.09;;;-142.83;72.87
9129;BME280;4599;50.906;6.786;2023-03-03T11:05:13;15613.31;;;-142.83;73.17
9129;BME280;4599;50.906;6.786;2023-03-03T11:09:36;15625.56;;;-142.83;72.12
9129;BME280;4599;50.906;6.786;2023-03-03T11:13:45;15643.97;;;-142.83;72.73
9129;BME280;4599;50.906;6.786;2023-03-03T11:18:10;15631.72;;;-142.83;73.46
9129;BME280;4599;50.906;6.786;2023-03-03T11:22:33;15609.22;;;-142.83;73.67
9129;BME280;4599;50.906;6.786;2023-03-03T11:27:05;15629.66;;;-142.83;73.32
9129;BME280;4599;50.906;6.786;2023-03-03T11:31:17;15607.16;;;-142.83;72.07
9129;BME280;4599;50.906;6.786;2023-03-03T11:35:24;15633.75;;;-142.83;73.01
9129;BME280;4599;50.906;6.786;2023-03-03T11:39:27;15650.09;;;-142.83;72.02
9129;BME280;4599;50.906;6.786;2023-03-03T11:43:33;15670.56;;;-142.83;70.34
9129;BME280;4599;50.906;6.786;2023-03-03T11:47:44;15648.06;;;-142.83;71.77
9129;BME280;4599;50.906;6.786;2023-03-03T11:51:58;15641.94;;;-142.83;70.96
9129;BME280;4599;50.906;6.786;2023-03-03T11:56:06;15654.19;;;-142.83;70.86
9129;BME280;4599;50.906;6.786;2023-03-03T12:00:24;15682.81;;;-142.83;70.94
9129;BME280;4599;50.906;6.786;2023-03-03T12:04:33;15670.56;;;-142.83;69.76
9129;BME280;4599;50.906;6.786;2023-03-03T12:08:52;15646.03;;;-142.83;70.73
9129;BME280;4599;50.906;6.786;2023-03-03T12:13:01;15652.16;;;-142.83;71.01
9129;BME280;4599;50.906;6.786;2023-03-03T12:17:05;15676.69;;;-142.83;69.08
9129;BME280;4599;50.906;6.786;2023-03-03T12:21:27;15646.03;;;-142.83;70.87
9129;BME280;4599;50.906;6.786;2023-03-03T12:25:50;15652.16;;;-142.83;70.35
9129;BME280;4599;50.906;6.786;2023-03-03T12:30:05;15658.28;;;-142.83;69.54
9129;BME280;4599;50.906;6.786;2023-03-03T12:34:17;15678.72;;;-142.83;67.72
9129;BME280;4599;50.906;6.786;2023-03-03T12:38:29;15666.47;;;-142.83;70.43
9129;BME280;4599;50.906;6.786;2023-03-03T12:42:41;15635.78;;;-142.83;70.24
9129;BME280;4599;50.906;6.786;2023-03-03T12:46:56;15654.19;;;-142.83;69.32
9129;BME280;4599;50.906;6.786;2023-03-03T12:51:05;15703.25;;;-142.83;68.26
9129;BME280;4599;50.906;6.786;2023-03-03T12:55:17;15699.19;;;-142.83;67.36
9129;BME280;4599;50.906;6.786;2023-03-03T12:59:26;15682.81;;;-142.83;69.33
9129;BME280;4599;50.906;6.786;2023-03-03T13:03:39;15672.59;;;-142.83;69.52
9129;BME280;4599;50.906;6.786;2023-03-03T13:08:13;15664.41;;;-142.83;68.30
9129;BME280;4599;50.906;6.786;2023-03-03T13:12:29;15697.13;;;-142.83;67.98
9129;BME280;4599;50.906;6.786;2023-03-03T13:16:34;15707.34;;;-142.83;68.95
9129;BME280;4599;50.906;6.786;2023-03-03T13:20:46;15684.88;;;-142.83;68.93
9129;BME280;4599;50.906;6.786;2023-03-03T13:24:56;15676.69;;;-142.83;67.20
9129;BME280;4599;50.906;6.786;2023-03-03T13:29:14;15731.88;;;-142.83;66.59
9129;BME280;4599;50.906;6.786;2023-03-03T13:33:24;15709.41;;;-142.83;66.41
9129;BME280;4599;50.906;6.786;2023-03-03T13:37:29;15668.50;;;-142.83;66.91
9129;BME280;4599;50.906;6.786;2023-03-03T13:41:37;15713.50;;;-142.83;66.43
9129;BME280;4599;50.906;6.786;2023-03-03T13:45:49;15754.38;;;-142.83;65.48
9129;BME280;4599;50.906;6.786;2023-03-03T13:50:13;15707.34;;;-142.83;66.57
9129;BME280;4599;50.906;6.786;2023-03-03T13:54:39;15699.19;;;-142.83;67.49
9129;BME280;4599;50.906;6.786;2023-03-03T13:58:45;15691.00;;;-142.83;67.27
9129;BME280;4599;50.906;6.786;2023-03-03T14:03:01;15691.00;;;-142.83;67.25
9129;BME280;4599;50.906;6.786;2023-03-03T14:07:12;15768.69;;;-142.83;66.00
9129;BME280;4599;50.906;6.786;2023-03-03T14:11:18;15715.53;;;-142.83;66.28
9129;BME280;4599;50.906;6.786;2023-03-03T14:15:25;15686.91;;;-142.83;66.93
9129;BME280;4599;50.906;6.786;2023-03-03T14:19:33;15703.25;;;-142.83;65.71
9129;BME280;4599;50.906;6.786;2023-03-03T14:23:48;15670.56;;;-142.83;67.91
9129;BME280;4599;50.906;6.786;2023-03-03T14:28:00;15727.81;;;-142.83;65.88
9129;BME280;4599;50.906;6.786;2023-03-03T14:32:20;15729.84;;;-142.83;65.77
9129;BME280;4599;50.906;6.786;2023-03-03T14:36:27;15752.34;;;-142.83;65.21
9129;BME280;4599;50.906;6.786;2023-03-03T14:40:32;15729.84;;;-142.83;64.46
9129;BME280;4599;50.906;6.786;2023-03-03T14:44:35;15748.25;;;-142.83;64.51
9129;BME280;4599;50.906;6.786;2023-03-03T14:48:48;15735.97;;;-142.83;66.34
9129;BME280;4599;50.906;6.786;2023-03-03T14:53:04;15711.44;;;-142.83;66.01
9129;BME280;4599;50.906;6.786;2023-03-03T14:57:12;15705.31;;;-142.83;67.53
9129;BME280;4599;50.906;6.786;2023-03-03T15:01:21;15709.41;;;-142.83;67.19
9129;BME280;4599;50.906;6.786;2023-03-03T15:05:24;15735.97;;;-142.83;65.40
9129;BME280;4599;50.906;6.786;2023-03-03T15:09:31;15707.34;;;-142.83;66.53
9129;BME280;4599;50.906;6.786;2023-03-03T15:13:34;15688.94;;;-142.83;66.78
9129;BME280;4599;50.906;6.786;2023-03-03T15:17:36;15670.56;;;-142.83;66.56
9129;BME280;4599;50.906;6.786;2023-03-03T15:21:43;15658.28;;;-142.83;67.69
9129;BME280;4599;50.906;6.786;2023-03-03T15:25:56;15688.94;;;-142.83;66.39
9129;BME280;4599;50.906;6.786;2023-03-03T15:30:06;15691.00;;;-142.83;66.31
9129;BME280;4599;50.906;6.786;2023-03-03T15:34:29;15691.00;;;-142.83;66.64
9129;BME280;4599;50.906;6.786;2023-03-03T15:38:42;15703.25;;;-142.83;68.74
9129;BME280;4599;50.906;6.786;2023-03-03T15:42:50;15709.41;;;-142.83;68.67
9129;BME280;4599;50.906;6.786;2023-03-03T15:47:03;15699.19;;;-142.83;68.65
9129;BME280;4599;50.906;6.786;2023-03-03T15:51:18;15652.16;;;-142.83;67.91
9129;BME280;4599;50.906;6.786;2023-03-03T15:55:33;15678.72;;;-142.83;68.88
9129;BME280;4599;50.906;6.786;2023-03-03T15:59:52;15656.25;;;-142.83;68.50
9129;BME280;4599;50.906;6.786;2023-03-03T16:04:03;15637.84;;;-142.83;68.74
9129;BME280;4599;50.906;6.786;2023-03-03T16:08:09;15670.56;;;-142.83;69.11
9129;BME280;4599;50.906;6.786;2023-03-03T16:12:19;15643.97;;;-142.83;70.72
9129;BME280;4599;50.906;6.786;2023-03-03T16:16:34;15637.84;;;-142.83;71.46
9129;BME280;4599;50.906;6.786;2023-03-03T16:20:43;15635.78;;;-142.83;71.02
9129;BME280;4599;50.906;6.786;2023-03-03T16:24:57;15641.94;;;-142.83;71.60
9129;BME280;4599;50.906;6.786;2023-03-03T16:29:28;15625.56;;;-142.83;71.95
9129;BME280;4599;50.906;6.786;2023-03-03T16:33:37;15623.53;;;-142.83;71.98
9129;BME280;4599;50.906;6.786;2023-03-03T16:37:49;15609.22;;;-142.83;72.66
9129;BME280;4599;50.906;6.786;2023-03-03T16:41:58;15629.66;;;-142.83;73.14
9129;BME280;4599;50.906;6.786;2023-03-03T16:46:05;15605.13;;;-142.83;72.78
9129;BME280;4599;50.906;6.786;2023-03-03T16:50:22;15625.56;;;-142.83;72.78
9129;BME280;4599;50.906;6.786;2023-03-03T16:54:36;15609.22;;;-142.83;73.04
9129;BME280;4599;50.906;6.786;2023-03-03T16:58:45;15586.72;;;-142.83;73.48
9129;BME280;4599;50.906;6.786;2023-03-03T17:03:12;15617.41;;;-142.83;73.87
9129;BME280;4599;50.906;6.786;2023-03-03T17:07:31;15615.34;;;-142.83;74.17
9129;BME280;4599;50.906;6.786;2023-03-03T17:11:44;15643.97;;;-142.83;74.24
9129;BME280;4599;50.906;6.786;2023-03-03T17:15:58;15631.72;;;-142.83;74.52
9129;BME280;4599;50.906;6.786;2023-03-03T17:20:13;15629.66;;;-142.83;75.21
9129;BME280;4599;50.906;6.786;2023-03-03T17:24:32;15592.84;;;-142.83;75.39
9129;BME280;4599;50.906;6.786;2023-03-03T17:28:47;15599.00;;;-142.83;75.88
9129;BME280;4599;50.906;6.786;2023-03-03T17:33:08;15627.63;;;-142.83;76.33
9129;BME280;4599;50.906;6.786;2023-03-03T17:37:22;15601.03;;;-142.83;77.02
9129;BME280;4599;50.906;6.786;2023-03-03T17:41:35;15613.31;;;-142.83;77.18
9129;BME280;4599;50.906;6.786;2023-03-03T17:45:41;15596.94;;;-142.83;77.33
9129;BME280;4599;50.906;6.786;2023-03-03T17:50:00;15601.03;;;-142.83;77.98
9129;BME280;4599;50.906;6.786;2023-03-03T17:54:21;15629.66;;;-142.83;77.67
9129;BME280;4599;50.906;6.786;2023-03-03T17:58:46;15590.81;;;-142.83;77.58
9129;BME280;4599;50.906;6.786;2023-03-03T18:03:12;15578.56;;;-142.83;77.29
9129;BME280;4599;50.906;6.786;2023-03-03T18:07:34;15578.56;;;-142.83;78.00
9129;BME280;4599;50.906;6.786;2023-03-03T18:11:54;15592.84;;;-142.83;78.52
9129;BME280;4599;50.906;6.786;2023-03-03T18:16:08;15617.41;;;-142.83;78.40
9129;BME280;4599;50.906;6.786;2023-03-03T18:20:25;15613.31;;;-142.83;78.80
9129;BME280;4599;50.906;6.786;2023-03-03T18:24:35;15601.03;;;-142.83;78.75
9129;BME280;4599;50.906;6.786;2023-03-03T18:28:44;15590.81;;;-142.83;78.63
9129;BME280;4599;50.906;6.786;2023-03-03T18:33:09;15599.00;;;-142.83;79.50
9129;BME280;4599;50.906;6.786;2023-03-03T18:37:37;15611.25;;;-142.83;79.14
9129;BME280;4599;50.906;6.786;2023-03-03T18:42:06;15605.13;;;-142.83;79.78
9129;BME280;4599;50.906;6.786;2023-03-03T18:46:11;15609.22;;;-142.83;79.82
9129;BME280;4599;50.906;6.786;2023-03-03T18:50:34;15609.22;;;-142.83;80.11
9129;BME280;4599;50.906;6.786;2023-03-03T18:54:38;15576.50;;;-142.83;80.02
9129;BME280;4599;50.906;6.786;2023-03-03T18:58:41;15613.31;;;-142.83;80.00
9129;BME280;4599;50.906;6.786;2023-03-03T19:02:50;15588.78;;;-142.83;80.34
9129;BME280;4599;50.906;6.786;2023-03-03T19:07:12;15621.47;;;-142.83;80.72
9129;BME280;4599;50.906;6.786;2023-03-03T19:11:34;15574.47;;;-142.83;80.19
9129;BME280;4599;50.906;6.786;2023-03-03T19:15:49;15572.41;;;-142.83;79.71
9129;BME280;4599;50.906;6.786;2023-03-03T19:20:01;15586.72;;;-142.83;79.95
9129;BME280;4599;50.906;6.786;2023-03-03T19:24:24;15619.44;;;-142.83;79.81
9129;BME280;4599;50.906;6.786;2023-03-03T19:28:36;15568.31;;;-142.83;80.47
9129;BME280;4599;50.906;6.786;2023-03-03T19:33:05;15590.81;;;-142.83;80.78
9129;BME280;4599;50.906;6.786;2023-03-03T19:37:21;15596.94;;;-142.83;80.58
9129;BME280;4599;50.906;6.786;2023-03-03T19:41:41;15564.25;;;-142.83;81.33
9129;BME280;4599;50.906;6.786;2023-03-03T19:45:54;15568.31;;;-142.83;81.79
9129;BME280;4599;50.906;6.786;2023-03-03T19:50:09;15578.56;;;-142.83;81.52
9129;BME280;4599;50.906;6.786;2023-03-03T19:54:27;15582.63;;;-142.83;81.34
9129;BME280;4599;50.906;6.786;2023-03-03T19:58:42;15568.31;;;-142.83;80.98
9129;BME280;4599;50.906;6.786;2023-03-03T20:02:56;15568.31;;;-142.83;80.88
9129;BME280;4599;50.906;6.786;2023-03-03T20:07:09;15588.78;;;-142.83;81.82
9129;BME280;4599;50.906;6.786;2023-03-03T20:11:20;15570.38;;;-142.83;81.13
9129;BME280;4599;50.906;6.786;2023-03-03T20:15:29;15592.84;;;-142.83;81.35
9129;BME280;4599;50.906;6.786;2023-03-03T20:19:43;15576.50;;;-142.83;81.63
9129;BME280;4599;50.906;6.786;2023-03-03T20:28:31;15556.06;;;-142.83;81.68
9129;BME280;4599;50.906;6.786;2023-03-03T20:32:50;15547.88;;;-142.83;82.17
9129;BME280;4599;50.906;6.786;2023-03-03T20:37:02;15574.47;;;-142.83;82.47
9129;BME280;4599;50.906;6.786;2023-03-03T20:41:11;15568.31;;;-142.83;82.77
9129;BME280;4599;50.906;6.786;2023-03-03T20:45:23;15543.78;;;-142.83;82.67
9129;BME280;4599;50.906;6.786;2023-03-03T20:49:48;15541.75;;;-142.83;83.67
9129;BME280;4599;50.906;6.786;2023-03-03T20:54:01;15547.88;;;-142.83;82.63
9129;BME280;4599;50.906;6.786;2023-03-03T20:58:11;15558.09;;;-142.83;82.00
9129;BME280;4599;50.906;6.786;2023-03-03T21:02:21;15549.94;;;-142.83;82.61
9129;BME280;4599;50.906;6.786;2023-03-03T21:06:35;15570.38;;;-142.83;82.20
9129;BME280;4599;50.906;6.786;2023-03-03T21:10:37;15531.53;;;-142.83;82.21
9129;BME280;4599;50.906;6.786;2023-03-03T21:14:43;15525.41;;;-142.83;81.93
9129;BME280;4599;50.906;6.786;2023-03-03T21:19:01;15551.97;;;-142.83;81.66
9129;BME280;4599;50.906;6.786;2023-03-03T21:23:04;15556.06;;;-142.83;81.80
9129;BME280;4599;50.906;6.786;2023-03-03T21:27:23;15551.97;;;-142.83;81.06
9129;BME280;4599;50.906;6.786;2023-03-03T21:31:27;15576.50;;;-142.83;81.08
9129;BME280;4599;50.906;6.786;2023-03-03T21:35:28;15554.00;;;-142.83;80.28
9129;BME280;4599;50.906;6.786;2023-03-03T21:39:32;15556.06;;;-142.83;80.17
9129;BME280;4599;50.906;6.786;2023-03-03T21:43:35;15531.53;;;-142.83;80.19
9129;BME280;4599;50.906;6.786;2023-03-03T21:47:37;15564.25;;;-142.83;79.69
9129;BME280;4599;50.906;6.786;2023-03-03T21:51:38;15560.16;;;-142.83;80.01
9129;BME280;4599;50.906;6.786;2023-03-03T21:55:41;15549.94;;;-142.83;79.89
9129;BME280;4599;50.906;6.786;2023-03-03T21:59:42;15564.25;;;-142.83;80.60
9129;BME280;4599;50.906;6.786;2023-03-03T22:03:44;15556.06;;;-142.83;79.99
9129;BME280;4599;50.906;6.786;2023-03-03T22:07:45;15560.16;;;-142.83;79.64
9129;BME280;4599;50.906;6.786;2023-03-03T22:11:48;15547.88;;;-142.83;79.42